Date StartTime U_cm/s V_cm/s W_cm/s Ustd_cm/s Vstd_cm/s Wstd_cm/s Uvar_(cm/s)^2 Vvar_(cm/s)^2 Wvar_(cm/s)^2 KE_(m/s)^2 TurbulentKE_(m/s)^2 HorizWindSpeed_cm/s FrictionSpeec_cm/s DragCoef SpeedOfSound_m/s SonicTemperature_C Pressure_mb 
06/23/2014  19:39:00     -264.561     -140.476       16.079      174.202      148.225       80.282    30346.459    21970.713     6445.266        7.436        2.938      299.543       90.016        0.090      347.668       26.799      858.906
06/23/2014  19:40:00     -317.857     -261.517       -9.262      177.308      159.959       91.745    31438.005    25587.009     8417.116       11.746        3.272      411.612       94.736        0.053      347.664       26.794      858.922
06/23/2014  19:41:00     -463.073     -119.414      -20.616      225.994      166.465       88.402    51073.246    27710.543     7814.887       15.784        4.330      478.222      102.181        0.046      347.617       26.714      858.920
06/23/2014  19:42:00     -421.145     -107.908       -1.713      278.640      178.200      110.663    77640.311    31755.092    12246.259       15.529        6.082      434.750      133.667        0.095      347.592       26.669      858.919
06/23/2014  19:43:00     -460.283     -199.555      -25.726      201.357      150.677       86.166    40544.557    22703.516     7424.560       16.149        3.534      501.679      100.117        0.040      347.595       26.675      858.937
06/23/2014  19:44:00     -572.345     -262.837      -15.050      279.196      226.107      121.253    77950.370    51124.294    14702.224       27.030        7.189      629.812      124.203        0.039      347.557       26.608      858.923
06/23/2014  19:45:00     -390.696     -148.069       -5.683      252.202      184.259      102.137    63605.939    33951.350    10432.047       14.127        5.399      417.814      123.298        0.087      347.540       26.579      858.951
06/23/2014  19:46:00     -607.639     -347.066      -33.816      300.458      219.491      137.127    90274.729    48176.245    18803.748       32.401        7.863      699.772      152.469        0.047      347.499       26.509      858.936
06/23/2014  19:47:00     -539.607     -337.718      -25.968      311.617      217.659      121.852    97104.990    47375.424    14847.981       28.258        7.966      636.576      149.943        0.055      347.497       26.505      858.959
06/23/2014  19:48:00     -355.793      -86.967        8.115      176.373      168.045       94.521    31107.263    28239.210     8934.239       10.124        3.414      366.267       92.854        0.064      347.518       26.541      859.011
06/23/2014  19:49:00     -461.709     -170.075       -1.825      297.459      252.229      115.941    88482.095    63619.292    13442.278       20.379        8.277      492.037      123.152        0.063      347.453       26.430      859.011
06/23/2014  19:50:00     -511.344     -185.430      -21.661      255.647      199.246      106.167    65355.287    39699.068    11271.430       20.630        5.816      543.927      113.573        0.044      347.437       26.400      859.034
06/23/2014  19:51:00     -494.199     -389.503      -10.725      322.236      234.279      143.332   103836.034    54886.843    20543.948       28.763        8.963      629.242      170.705        0.074      347.392       26.324      859.018
06/23/2014  19:52:00     -464.910      -72.081      -16.805      229.127      191.063      117.759    52499.063    36505.206    13867.155       16.223        5.144      470.465      119.791        0.065      347.385       26.312      859.055
06/23/2014  19:53:00     -364.322     -133.850       -5.734      241.037      150.862       93.695    58098.969    22759.291     8778.693       12.014        4.482      388.132      107.460        0.077      347.371       26.289      859.080
06/23/2014  19:54:00     -468.088     -112.914      -13.652      311.320      243.412      115.777    96920.289    59249.453    13404.383       20.077        8.479      481.514      147.220        0.093      347.339       26.232      859.099
06/23/2014  19:55:00     -513.965     -286.817      -20.250      246.508      184.390      108.319    60766.193    33999.529    11732.925       22.665        5.325      588.578      111.189        0.036      347.311       26.187      859.128
06/23/2014  19:56:00     -432.952     -180.640      -14.677      252.188      156.452      100.405    63599.037    24477.082    10081.118       15.921        4.908      469.125      108.422        0.053      347.276       26.124      859.114
06/23/2014  19:57:00     -303.659     -127.735       13.476      250.319      186.086      122.704    62659.684    34628.182    15056.262       11.050        5.617      329.432      125.160        0.144      347.288       26.146      859.116
06/23/2014  19:58:00     -550.042     -265.124      -13.197      342.657      223.486      124.904   117414.108    49945.929    15600.999       27.795        9.148      610.603      142.785        0.055      347.233       26.049      859.105
06/23/2014  19:59:00     -495.037     -251.991      -31.363      305.360      218.229      129.578    93245.009    47624.047    16790.414       23.357        7.883      555.482      145.957        0.069      347.226       26.038      859.077
06/23/2014  20:00:00     -478.655     -362.653      -18.893      301.488      237.193      130.379    90895.020    56260.613    16998.632       26.254        8.208      600.523      153.814        0.066      347.194       25.985      859.108
06/23/2014  20:01:00     -412.991     -243.112       -5.377      249.011      169.465       99.169    62006.602    28718.383     9834.523       16.511        5.028      479.234      101.437        0.045      347.197       25.989      859.146
06/23/2014  20:02:00     -558.243     -299.952      -15.207      363.172      239.685      138.621   131893.778    57448.750    19215.825       30.516       10.428      633.725      161.491        0.065      347.170       25.941      859.128
06/23/2014  20:03:00     -502.805     -262.936       -2.621      255.408      310.976      128.107    65233.304    96706.183    16411.397       25.012        8.918      567.405      146.521        0.067      347.155       25.917      859.134
06/23/2014  20:04:00     -413.570     -282.695        6.096      322.649      220.138      129.498   104102.086    48460.701    16769.852       21.013        8.467      500.956      150.616        0.090      347.154       25.914      859.172
06/23/2014  20:05:00     -366.923     -241.871       10.753      261.938      218.597      126.284    68611.550    47784.544    15947.565       16.277        6.617      439.470      134.360        0.093      347.135       25.882      859.213
06/23/2014  20:06:00     -678.930     -451.429      -22.756      277.984      234.359      125.604    77274.906    54924.285    15776.481       40.658        7.399      815.313      145.300        0.032      347.118       25.851      859.188
06/23/2014  20:07:00     -433.772     -321.563       -2.639      274.575      226.276      134.242    75391.173    51200.691    18020.787       21.806        7.231      539.964      154.814        0.082      347.113       25.842      859.220
06/23/2014  20:08:00     -529.996     -340.212      -11.071      280.541      185.862       98.360    78703.327    34544.706     9674.708       25.982        6.146      629.793      109.267        0.030      347.104       25.829      859.231
06/23/2014  20:09:00     -411.573     -144.387      -15.963      246.959      204.816      104.938    60988.915    41949.705    11012.010       15.220        5.698      436.165      102.310        0.055      347.071       25.771      859.253
06/23/2014  20:10:00     -395.094     -197.440        2.666      302.674      194.750      116.128    91611.384    37927.371    13485.602       16.903        7.151      441.680      125.431        0.081      347.054       25.741      859.269
06/23/2014  20:11:00     -427.234     -193.868      -19.544      204.844      194.166      105.978    41960.878    37700.563    11231.374       15.568        4.545      469.163      104.684        0.050      347.054       25.742      859.285
06/23/2014  20:12:00     -422.924     -114.382       -3.590      270.284      216.604      136.412    73053.605    46917.149    18608.137       16.524        6.929      438.119      136.490        0.097      347.018       25.680      859.301
06/23/2014  20:13:00     -332.505     -186.343       -3.014      179.666      202.379       95.202    32279.788    40957.269     9063.419       11.378        4.115      381.161       83.011        0.047      347.021       25.685      859.349
06/23/2014  20:14:00     -459.413     -262.624      -32.815      304.746      240.348      134.702    92870.046    57767.049    18144.585       22.491        8.439      529.181      151.218        0.082      346.976       25.608      859.352
06/23/2014  20:15:00     -443.601     -241.658       -1.177      284.871      213.048      134.631    81151.439    45389.431    18125.565       19.990        7.233      505.154      150.219        0.088      346.986       25.624      859.345
06/23/2014  20:16:00     -566.523     -221.563      -21.495      224.841      187.267       89.030    50553.426    35068.856     7926.307       23.201        4.677      608.308      104.343        0.029      346.954       25.570      859.406
06/23/2014  20:17:00     -375.250     -107.551      -23.580      210.365      159.506       92.757    44253.233    25442.210     8603.834       11.560        3.915      390.359      103.327        0.070      346.928       25.525      859.415
06/23/2014  20:18:00     -322.637     -132.373      -12.462      164.204      170.707       76.846    26962.841    29140.873     5905.380        9.188        3.100      348.737       78.320        0.050      346.913       25.498      859.439
06/23/2014  20:19:00     -327.435     -173.727        3.849      239.574      153.242       96.298    57395.763    23483.191     9273.209       11.376        4.508      370.668      104.357        0.079      346.892       25.464      859.421
06/23/2014  20:20:00     -244.599      -81.310       17.119      212.571      181.011       95.373    45186.511    32764.855     9095.967        7.687        4.352      257.760      108.365        0.177      346.859       25.407      859.421
06/23/2014  20:21:00     -356.089     -162.795        1.402      202.306      140.877       83.312    40927.661    19846.415     6940.837       11.050        3.386      391.537       94.529        0.058      346.848       25.388      859.438
06/23/2014  20:22:00     -594.058     -225.189      -15.646      260.999      192.850      107.359    68120.228    37191.312    11525.993       26.033        5.842      635.307      125.096        0.039      346.825       25.347      859.435
06/23/2014  20:23:00     -427.151     -116.796        6.780      241.356      159.366      107.779    58252.807    25397.442    11616.352       14.569        4.763      442.831      132.877        0.090      346.806       25.316      859.427
06/23/2014  20:24:00     -260.114     -170.190        6.253      188.622      168.051       84.645    35578.106    28241.107     7164.825        8.381        3.549      310.843       94.865        0.093      346.791       25.290      859.449
06/23/2014  20:25:00     -328.924     -146.932        4.249      202.917      177.449       94.819    41175.491    31488.111     8990.658       10.571        4.083      360.250      102.158        0.080      346.780       25.270      859.444
06/23/2014  20:26:00     -618.940     -249.481      -36.390      326.056      188.319      109.001   106312.840    35463.989    11881.191       30.012        7.683      667.328      148.313        0.049      346.777       25.267      859.460
06/23/2014  20:27:00     -477.015     -242.229      -22.599      315.577      242.023      143.996    99588.597    58575.028    20734.939       23.278        8.945      534.994      170.279        0.101      346.766       25.246      859.444
06/23/2014  20:28:00     -379.060     -270.148       -9.415      285.137      237.367      103.432    81302.878    56343.207    10698.256       18.252        7.417      465.475      125.120        0.072      346.759       25.232      859.448
06/23/2014  20:29:00     -407.187     -172.678      -19.320      246.560      176.060       99.121    60791.652    30997.059     9824.981       14.878        5.081      442.288      114.806        0.067      346.735       25.193      859.471
06/23/2014  20:30:00     -352.052     -199.598       12.452      274.687      205.395      114.115    75452.949    42187.073    13022.277       14.727        6.533      404.698      139.025        0.118      346.734       25.191      859.480
06/23/2014  20:31:00     -371.178     -176.876        8.881      242.018      196.956      114.796    58572.848    38791.812    13178.044       13.982        5.527      411.167      126.217        0.094      346.719       25.165      859.495
06/23/2014  20:32:00     -526.133     -227.655      -21.243      259.009      181.262      111.797    67085.510    32855.820    12498.632       22.074        5.622      573.274      125.622        0.048      346.699       25.131      859.505
06/23/2014  20:33:00     -310.943     -175.599       -1.513      203.682      211.980       97.167    41486.320    44935.633     9441.428       11.167        4.793      357.100      104.424        0.086      346.696       25.124      859.546
06/23/2014  20:34:00     -540.813     -142.124        3.381      298.530      213.407      111.096    89120.100    45542.337    12342.242       22.982        7.350      559.176      128.151        0.053      346.692       25.118      859.522
06/23/2014  20:35:00     -310.640     -134.401       16.813      270.878      185.422      101.780    73374.796    34381.339    10359.103       11.646        5.906      338.469      115.492        0.116      346.675       25.090      859.529
06/23/2014  20:36:00     -399.311      -61.744        7.261      235.573      209.408       88.550    55494.865    43851.834     7841.164       13.523        5.359      404.056      102.522        0.064      346.659       25.062      859.557
06/23/2014  20:37:00     -404.879     -241.357      -13.909      213.839      171.453       92.494    45727.070    29395.991     8555.159       15.301        4.184      471.360      106.406        0.051      346.665       25.073      859.576
06/23/2014  20:38:00     -390.583     -208.572        0.053      168.014      145.267       88.561    28228.655    21102.576     7843.121       12.660        2.859      442.783       78.793        0.032      346.635       25.022      859.583
06/23/2014  20:39:00     -184.694     -106.828       18.161      175.634      131.174       86.156    30847.363    17206.585     7422.830        5.065        2.774      213.363       96.773        0.206      346.591       24.947      859.578
06/23/2014  20:40:00     -307.731     -172.818       19.582      257.961      162.228      104.607    66544.111    26317.976    10942.678       11.436        5.190      352.937      113.830        0.104      346.594       24.950      859.585
06/23/2014  20:41:00     -369.632     -167.637      -10.461      270.421      233.445      113.381    73127.659    54496.580    12855.270       15.263        7.024      405.869      138.005        0.116      346.564       24.899      859.568
06/23/2014  20:42:00     -510.652     -219.300      -15.784      273.232      217.433      109.997    74655.530    47276.938    12099.329       22.154        6.702      555.750      127.168        0.052      346.572       24.914      859.606
06/23/2014  20:43:00     -330.902     -187.922      -15.006      167.569      156.200       88.857    28079.305    24398.500     7895.636       10.269        3.019      380.540       86.969        0.052      346.554       24.881      859.643
06/23/2014  20:44:00     -428.187     -208.317      -24.502      192.810      176.976      101.911    37175.730    31320.432    10385.880       15.310        3.944      476.173      105.971        0.050      346.542       24.861      859.656
06/23/2014  20:45:00     -293.596     -264.345       18.900      259.003      224.031      116.676    67082.309    50189.923    13613.404       14.363        6.544      395.066      141.937        0.129      346.526       24.833      859.697
06/23/2014  20:46:00     -403.762     -204.155      -13.173      184.290      203.515       97.641    33962.666    41418.262     9533.719       14.488        4.246      452.441       96.706        0.046      346.545       24.866      859.713
06/23/2014  20:47:00     -468.013     -262.555      -17.365      248.622      228.246      123.968    61812.819    52096.198    15368.114       20.875        6.464      536.630      133.503        0.062      346.527       24.836      859.726
06/23/2014  20:48:00     -427.216     -225.237      -11.314      267.100      221.088      104.766    71342.475    48879.794    10975.876       18.226        6.560      482.955      123.083        0.065      346.504       24.797      859.729
06/23/2014  20:49:00     -381.353     -296.533      -15.007      228.661      149.467      111.868    52285.930    22340.262    12514.471       16.035        4.357      483.075      114.455        0.056      346.483       24.761      859.756
06/23/2014  20:50:00     -523.555     -325.045      -16.888      307.368      205.441      111.274    94475.112    42205.833    12381.934       26.453        7.453      616.250      141.358        0.053      346.474       24.745      859.748
06/23/2014  20:51:00     -268.851     -158.183       17.940      211.136      147.131       87.384    44578.350    21647.432     7635.968        8.573        3.693      311.934       77.979        0.062      346.438       24.682      859.746
06/23/2014  20:52:00     -293.627     -130.474       13.602      280.015      210.964       84.650    78408.431    44505.773     7165.645       11.673        6.504      321.311      109.781        0.117      346.414       24.642      859.788
06/23/2014  20:53:00     -512.960     -339.426      -17.826      247.631      282.625      117.818    61320.955    79877.157    13881.145       26.684        7.754      615.091      122.394        0.040      346.429       24.666      859.767
06/23/2014  20:54:00     -323.552     -246.863       -7.049      228.678      213.617      117.081    52293.479    45632.029    13707.954       13.863        5.582      406.973      124.970        0.094      346.379       24.580      859.784
06/23/2014  20:55:00     -429.319     -144.118      -19.404      195.998      189.737       95.628    38415.249    36000.064     9144.766       14.449        4.178      452.863       91.586        0.041      346.371       24.566      859.810
06/23/2014  20:56:00     -380.928     -176.071       10.445      247.339      160.956       95.451    61176.421    25906.891     9110.927       13.619        4.810      419.651      109.943        0.069      346.361       24.550      859.811
06/23/2014  20:57:00     -441.438     -252.823      -12.455      259.409      216.849      108.760    67293.021    47023.372    11828.781       19.252        6.307      508.711      128.784        0.064      346.359       24.545      859.817
06/23/2014  20:58:00     -582.436     -197.441      -26.620      273.053      177.691      114.744    74558.191    31574.109    13166.255       24.909        5.965      614.991      127.376        0.043      346.358       24.544      859.835
06/23/2014  20:59:00     -496.091     -282.148      -15.997      265.336      242.678      121.457    70402.947    58892.724    14751.729       23.498        7.202      570.714      137.018        0.058      346.351       24.531      859.852
06/23/2014  21:00:00     -532.487     -272.340      -26.318      259.661      229.392      113.992    67424.022    52620.905    12994.156       24.569        6.652      598.090      120.481        0.041      346.355       24.541      859.857
06/23/2014  21:01:00     -420.569     -252.669      -26.171      186.539      179.284       88.665    34796.811    32142.773     7861.450       15.809        3.740      490.632       70.952        0.021      346.348       24.527      859.889
06/23/2014  21:02:00     -568.971     -386.872      -15.138      246.448      203.643      115.958    60736.660    41470.288    13446.291       29.462        5.783      688.039      126.095        0.034      346.324       24.486      859.871
06/23/2014  21:03:00     -440.763     -265.779       -8.870      237.516      223.170      115.231    56413.739    49804.824    13278.243       19.222        5.975      514.695      127.767        0.062      346.317       24.474      859.903
06/23/2014  21:04:00     -454.956     -136.931      -24.726      241.460      145.724      101.203    58302.856    21235.552    10241.980       15.805        4.489      475.116      126.474        0.071      346.309       24.460      859.947
06/23/2014  21:05:00     -435.704      -94.711      -21.547      219.173      149.837       71.425    48037.023    22451.229     5101.530       13.742        3.779      445.879       61.093        0.019      346.292       24.432      859.958
06/23/2014  21:06:00     -348.149     -233.011      -16.991      165.679      208.147       99.942    27449.417    43325.133     9988.420       12.826        4.038      418.929       89.344        0.045      346.291       24.432      860.009
06/23/2014  21:07:00     -494.601     -305.641       -5.747      304.208      185.959      111.906    92542.402    34580.628    12523.024       23.884        6.982      581.417      131.992        0.052      346.300       24.446      859.989
06/23/2014  21:08:00     -426.872     -265.188      -13.521      196.444      189.548       89.836    38590.065    35928.411     8070.525       16.764        4.129      502.538       99.036        0.039      346.272       24.398      860.019
06/23/2014  21:09:00     -242.795     -126.372        1.498      174.455      121.219       72.048    30434.649    14694.056     5190.890        6.261        2.516      273.714       81.971        0.090      346.242       24.344      860.061
06/23/2014  21:10:00     -254.245     -139.196        4.881      150.159      124.389       67.564    22547.586    15472.613     4564.924        6.330        2.129      289.855       80.116        0.076      346.218       24.303      860.084
06/23/2014  21:11:00     -360.133     -198.696        0.187      200.126      149.997       94.654    40050.335    22498.965     8959.318       12.033        3.575      411.310      109.915        0.071      346.232       24.327      860.076
06/23/2014  21:12:00     -499.213     -289.831      -10.638      207.603      172.273      105.055    43098.813    29677.850    11036.508       20.855        4.191      577.248      106.169        0.034      346.231       24.325      860.061
06/23/2014  21:13:00     -510.116     -303.549      -23.022      206.461      148.813       96.126    42625.946    22145.253     9240.253       21.344        3.701      593.600       93.407        0.025      346.217       24.302      860.050
06/23/2014  21:14:00     -443.652     -161.273      -28.362      177.292      199.407       82.553    31432.616    39763.143     6815.077       15.081        3.901      472.056       79.036        0.028      346.177       24.232      860.073
06/23/2014  21:15:00     -380.547     -198.212       -5.941      200.683      164.497      100.225    40273.666    27059.422    10045.112       13.074        3.869      429.074      105.277        0.060      346.166       24.215      860.082
06/23/2014  21:16:00     -301.150      -18.135        5.823      226.120      123.263       84.680    51130.069    15193.744     7170.746        8.226        3.675      301.696       96.961        0.103      346.103       24.107      860.080
06/23/2014  21:17:00     -214.896     -102.903        5.128      176.412      116.021       87.921    31121.263    13460.856     7730.115        5.454        2.616      238.263       95.033        0.159      346.088       24.082      860.081
06/23/2014  21:18:00     -347.217     -174.975       -1.718      150.580      115.273       71.233    22674.276    13287.772     5074.172        9.610        2.052      388.814       66.691        0.029      346.087       24.080      860.096
06/23/2014  21:19:00     -498.347     -275.727      -29.153      273.324      236.130      112.542    74706.203    55757.149    12665.749       23.415        7.156      569.539      124.475        0.048      346.093       24.087      860.083
06/23/2014  21:20:00     -393.894     -243.714      -21.517      202.246      168.685       83.878    40903.538    28454.663     7035.539       14.569        3.820      463.194       85.615        0.034      346.087       24.078      860.098
06/23/2014  21:21:00     -446.059     -290.422       -7.259      284.764      213.506      121.312    81090.353    45584.838    14716.498       21.235        7.070      532.272      142.800        0.072      346.071       24.052      860.089
06/23/2014  21:22:00     -460.055     -196.469      -11.100      241.641      172.107       96.883    58390.369    29620.904     9386.345       17.387        4.870      500.251      118.308        0.056      346.068       24.045      860.078
06/23/2014  21:23:00     -397.560     -188.603      -19.425      195.410      115.351       73.890    38185.090    13305.808     5459.788       12.547        2.848      440.029       88.850        0.041      346.045       24.006      860.134
06/23/2014  21:24:00     -416.290     -317.483       -2.153      231.432      190.726      107.536    53560.679    36376.246    11564.028       18.778        5.075      523.539      135.956        0.067      346.011       23.947      860.134
06/23/2014  21:25:00     -368.113     -223.929       -8.552      207.393      149.762       94.644    43011.886    22428.520     8957.567       13.005        3.720      430.873      110.146        0.065      346.007       23.941      860.166
06/23/2014  21:26:00     -365.306     -116.520      -11.974      208.358      167.263       84.593    43413.004    27977.035     7156.036       11.284        3.927      383.439       90.894        0.056      346.006       23.939      860.200
06/23/2014  21:27:00     -409.322     -102.575      -23.425      202.244      124.488       90.606    40902.833    15497.154     8209.365       12.160        3.230      421.978       99.101        0.055      345.980       23.895      860.223
06/23/2014  21:28:00     -344.788     -105.214        6.196      180.760      179.607       93.574    32674.276    32258.661     8756.149       10.182        3.684      360.484      102.478        0.081      345.939       23.825      860.254
06/23/2014  21:29:00     -295.610     -224.917       -7.451      167.896      153.886       87.628    28189.176    23680.895     7678.627        9.878        2.977      371.447       94.786        0.065      345.982       23.899      860.272
06/23/2014  21:30:00     -261.550      -47.261       -7.403      147.046      151.386       69.441    21622.543    22917.857     4822.015        6.002        2.468      265.785       53.960        0.041      345.951       23.846      860.305
06/23/2014  21:31:00     -336.507     -172.126      -10.101      247.301      194.956      107.704    61157.997    38007.826    11600.152       12.684        5.538      377.974      121.220        0.103      345.932       23.813      860.326
06/23/2014  21:32:00     -255.562     -130.574        4.937      241.721      160.115       78.456    58429.026    25636.802     6155.302        8.629        4.511      286.987      109.915        0.147      345.910       23.778      860.346
06/23/2014  21:33:00     -245.081     -115.613        1.353      147.046      119.809       75.930    21622.448    14354.079     5765.294        5.758        2.087      270.981       82.277        0.092      345.889       23.738      860.384
06/23/2014  21:34:00     -172.432      -85.515       -4.062      182.143      101.027       72.856    33176.097    10206.412     5307.929        4.287        2.435      192.472       89.651        0.217      345.889       23.740      860.412
06/23/2014  21:35:00     -220.536     -144.550       -7.619      175.230      140.615       81.935    30705.382    19772.640     6713.265        6.338        2.860      263.687       92.459        0.123      345.889       23.739      860.399
06/23/2014  21:36:00     -259.522     -128.972       -3.256      139.710      117.685       69.108    19518.992    13849.780     4775.933        6.106        1.907      289.803       59.397        0.042      345.873       23.712      860.445
06/23/2014  21:37:00     -134.440      -13.777       32.025      174.051       89.071       63.796    30293.634     7933.631     4069.930        3.078        2.115      135.144       87.465        0.419      345.815       23.614      860.470
06/23/2014  21:38:00     -122.517       19.589       23.798      184.033      120.622       71.351    33867.966    14549.555     5090.918        3.472        2.675      124.074       74.526        0.361      345.825       23.630      860.479
06/23/2014  21:39:00     -284.532      -24.881      -11.027      117.680      106.241       60.304    13848.489    11287.201     3636.570        5.523        1.439      285.618       53.808        0.035      345.831       23.640      860.540
06/23/2014  21:40:00     -249.562       12.568       -0.448      125.142       97.576       56.143    15660.407     9520.988     3152.017        4.538        1.417      249.878       62.725        0.063      345.824       23.628      860.582
06/23/2014  21:41:00     -266.401        4.436      -20.489       76.558       91.629       47.780     5861.100     8395.783     2282.898        4.397        0.827      266.438       39.226        0.022      345.811       23.603      860.643
06/23/2014  21:42:00     -144.986       26.868       -7.862       93.852       88.039       45.755     8808.119     7750.793     2093.525        2.022        0.933      147.454       48.016        0.106      345.792       23.574      860.660
06/23/2014  21:43:00     -145.056       -1.946       -6.811      104.187       87.970       46.267    10854.846     7738.801     2140.607        2.091        1.037      145.069       39.573        0.074      345.803       23.594      860.695
06/23/2014  21:44:00     -171.670      -15.937       -1.276      107.833       88.440       52.211    11627.909     7821.580     2726.028        2.595        1.109      172.408       54.724        0.101      345.743       23.490      860.750
06/23/2014  21:45:00     -204.438       38.004      -25.418       83.706       73.399       50.166     7006.652     5387.351     2516.650        2.939        0.746      207.940       44.410        0.046      345.808       23.601      860.787
06/23/2014  21:46:00     -214.505       12.273      -27.581       98.597       92.440       56.445     9721.306     8545.227     3186.080        3.418        1.073      214.856       52.275        0.059      345.776       23.546      860.763
06/23/2014  21:47:00     -249.899       -2.496      -16.415       94.922      107.266       44.922     9010.237    11506.031     2017.978        4.263        1.127      249.911       30.673        0.015      345.789       23.568      860.784
06/23/2014  21:48:00     -287.987      -91.686      -17.139       93.406       84.872       47.770     8724.634     7203.189     2281.974        5.492        0.910      302.230       41.428        0.019      345.762       23.519      860.806
06/23/2014  21:49:00     -142.629        7.800       -0.141       62.838       63.343       34.288     3948.564     4012.294     1175.665        1.477        0.457      142.843       23.780        0.028      345.728       23.465      860.850
06/23/2014  21:50:00     -108.225       79.481      -14.078       72.335       40.981       38.254     5232.361     1679.410     1463.379        1.330        0.419      134.275       37.828        0.079      345.684       23.388      860.892
06/23/2014  21:51:00     -131.281       99.552      -21.130       55.616       51.337       35.142     3093.092     2635.513     1234.935        1.728        0.348      164.758       25.297        0.024      345.664       23.355      860.895
06/23/2014  21:52:00     -119.987       80.598      -24.565       39.709       53.889       23.140     1576.798     2904.075      535.481        1.326        0.251      144.544       18.860        0.017      345.698       23.416      860.907
06/23/2014  21:53:00      -58.294       39.033       10.878       64.438       66.612       38.034     4152.313     4437.158     1446.576        0.754        0.502       70.155       28.452        0.164      345.602       23.250      860.910
06/23/2014  21:54:00      -96.680       76.247       -6.516       60.285       76.724       35.894     3634.227     5886.641     1288.369        1.300        0.540      123.128       45.912        0.139      345.642       23.316      860.911
06/23/2014  21:55:00     -138.824      169.211      -23.786       92.620      108.872       62.004     8578.546    11853.053     3844.449        3.637        1.214      218.871       65.408        0.089      345.632       23.298      860.917
06/23/2014  21:56:00     -151.145      184.223      -21.347       59.401       71.145       49.824     3528.483     5061.634     2482.389        3.415        0.554      238.292       40.329        0.029      345.590       23.224      860.940
06/23/2014  21:57:00     -161.954       56.147      -18.145       51.441       84.439       39.301     2646.137     7129.981     1544.542        2.051        0.566      171.411       32.304        0.036      345.626       23.291      860.934
06/23/2014  21:58:00      -63.574       52.927        2.164       56.980       82.363       44.801     3246.744     6783.639     2007.087        0.944        0.602       82.722       29.366        0.126      345.547       23.156      860.952
06/23/2014  21:59:00     -154.715      -17.882      -11.714       80.284       58.637       33.547     6445.540     3438.279     1125.381        1.770        0.550      155.745       35.261        0.051      345.574       23.201      860.960
06/23/2014  22:00:00     -129.191        0.119      -10.596       59.491       64.047       36.066     3539.146     4101.996     1300.734        1.287        0.447      129.191       31.582        0.060      345.541       23.144      860.979
06/23/2014  22:01:00     -110.814      -17.887      -13.786       48.029       49.365       27.509     2306.740     2436.940      756.761        0.914        0.275      112.248       16.965        0.023      345.579       23.211      861.004
06/23/2014  22:02:00     -144.029      -48.431      -13.152       41.703       42.134       37.789     1739.131     1775.305     1427.985        1.410        0.247      151.953       29.110        0.037      345.575       23.203      861.026
06/23/2014  22:03:00     -169.517       23.566      -19.403       67.592       70.033       37.176     4568.647     4904.653     1382.025        2.026        0.543      171.147       16.612        0.009      345.545       23.149      861.053
06/23/2014  22:04:00     -274.619      -76.312      -12.530      153.949       93.951       61.906    23700.425     8826.792     3832.351        5.887        1.818      285.025       76.001        0.071      345.511       23.089      861.047
06/23/2014  22:05:00     -297.199       41.537      -27.550      136.114      112.214       62.462    18526.912    12592.054     3901.485        6.291        1.751      300.087       58.081        0.037      345.480       23.038      861.065
06/23/2014  22:06:00     -237.396      -61.570      -44.101       90.543       93.740       60.423     8198.118     8787.103     3650.969        4.136        1.032      245.250       24.569        0.010      345.504       23.078      861.079
06/23/2014  22:07:00     -124.859       31.542       -5.890      111.901      114.155       68.097    12521.784    13031.376     4637.267        2.340        1.510      128.781       65.987        0.263      345.490       23.055      861.083
06/23/2014  22:08:00     -178.299       44.180      -11.452       89.359      110.300       53.490     7985.084    12166.036     2861.211        2.844        1.151      183.692       46.462        0.064      345.492       23.057      861.083
06/23/2014  22:09:00     -177.484       -7.450      -22.092       67.306       98.026       43.024     4530.112     9609.099     1851.046        2.401        0.800      177.640       19.504        0.012      345.484       23.044      861.123
06/23/2014  22:10:00     -239.562      -88.180      -25.797      125.263       82.039       56.747    15690.840     6730.379     3220.258        4.573        1.282      255.276       60.888        0.057      345.435       22.959      861.136
06/23/2014  22:11:00     -359.100      -73.548      -33.637      153.245      108.745       74.246    23483.911    11825.423     5512.397        8.815        2.041      366.554       82.632        0.051      345.433       22.955      861.130
06/23/2014  22:12:00     -191.492      -58.574      -13.136      105.575       66.584       42.911    11145.997     4433.436     1841.368        2.884        0.871      200.250       34.704        0.030      345.380       22.866      861.151
06/23/2014  22:13:00     -263.156      -88.498      -29.867      112.401       93.874       53.215    12634.091     8812.285     2831.791        5.112        1.214      277.638       41.678        0.023      345.381       22.866      861.137
06/23/2014  22:14:00     -265.880      -34.578      -26.613       95.862       85.535       54.098     9189.525     7316.321     2926.585        4.601        0.972      268.119       26.786        0.010      345.509       23.084      861.122
06/23/2014  22:15:00     -327.192      -47.173      -33.675       95.844       79.226       48.172     9185.985     6276.826     2320.561        6.409        0.889      330.575       40.598        0.015      345.392       22.885      861.166
06/23/2014  22:16:00     -256.822       -4.224      -21.476       74.165       98.099       49.892     5500.463     9623.491     2489.258        4.202        0.881      256.857       34.859        0.018      345.384       22.872      861.168
06/23/2014  22:17:00     -311.282      -59.575      -38.305       74.102       88.284       49.298     5491.032     7794.130     2430.307        5.881        0.786      316.931       32.491        0.011      345.418       22.930      861.147
06/23/2014  22:18:00     -303.908      -84.329      -19.940      103.830      124.011       59.938    10780.742    15378.685     3592.620        6.480        1.488      315.391       53.254        0.029      345.382       22.868      861.171
06/23/2014  22:19:00     -319.308      -86.384      -16.626       96.834       86.075       52.240     9376.835     7408.955     2729.041        6.460        0.976      330.786       48.441        0.021      345.308       22.741      861.199
06/23/2014  22:20:00     -358.538      -26.501      -34.288       90.296      101.106       48.134     8153.359    10222.374     2316.850        7.556        1.035      359.516       40.823        0.013      345.342       22.800      861.199
06/23/2014  22:21:00     -494.629      -60.924      -44.750      180.809      133.079       74.757    32691.816    17709.988     5588.659       15.317        2.800      498.367       81.090        0.026      345.463       23.009      861.156
06/23/2014  22:22:00     -198.916       80.158      -27.596      119.862      144.774       73.618    14366.784    20959.578     5419.542        4.374        2.037      214.460       75.362        0.123      345.424       22.941      861.186
06/23/2014  22:23:00     -222.510        5.591      -17.390      175.540      145.408       73.623    30814.184    21143.446     5420.281        5.360        2.869      222.580       79.211        0.127      345.434       22.958      861.151
06/23/2014  22:24:00     -190.157      -34.367        0.150      146.570      114.845       60.498    21482.640    13189.379     3659.987        3.783        1.917      193.238       44.987        0.054      345.398       22.897      861.163
06/23/2014  22:25:00     -484.988     -130.196      -28.452      257.914      154.924       85.411    66519.858    24001.444     7294.997       17.538        4.891      502.159      103.568        0.043      345.419       22.932      861.163
06/23/2014  22:26:00     -260.962      -99.954        3.181      177.557      102.328       75.863    31526.328    10470.948     5755.252        6.292        2.388      279.449       83.419        0.089      345.378       22.862      861.193
06/23/2014  22:27:00     -403.162      -15.405      -27.759      144.922      150.291       79.782    21002.340    22587.448     6365.173       10.674        2.498      403.456       82.694        0.042      345.336       22.789      861.207
06/23/2014  22:28:00     -353.370      -85.599      -26.908      118.923      103.116       61.727    14142.791    10632.865     3810.261        8.075        1.429      363.590       58.797        0.026      345.315       22.753      861.213
06/23/2014  22:29:00     -401.067      -75.160      -40.476       80.607       90.602       47.736     6497.553     8208.745     2278.772        9.256        0.849      408.048       36.211        0.008      345.306       22.738      861.235
06/23/2014  22:30:00     -294.647      -13.180      -31.534      100.830       74.878       55.107    10166.707     5606.771     3036.736        5.339        0.941      294.941       44.713        0.023      345.275       22.684      861.246
06/23/2014  22:31:00     -331.481      -57.841      -14.696      107.866      108.537       60.800    11635.180    11780.202     3696.657        7.027        1.356      336.489       52.134        0.024      345.352       22.817      861.246
06/23/2014  22:32:00     -214.859       41.880      -23.471       78.023      106.246       59.809     6087.556    11288.260     3577.132        3.471        1.048      218.902       54.630        0.062      345.362       22.837      861.217
06/23/2014  22:33:00     -194.100       -7.395      -20.492       87.257      108.059       55.438     7613.736    11676.699     3073.377        3.025        1.118      194.241       47.961        0.061      345.355       22.823      861.232
06/23/2014  22:34:00     -285.824     -123.586      -14.843      112.235      104.799       41.902    12596.689    10982.911     1755.751        6.126        1.267      311.398       35.104        0.013      345.340       22.797      861.237
06/23/2014  22:35:00     -231.578       16.500      -20.488      209.343      103.334       48.909    43824.285    10677.934     2392.042        5.560        2.845      232.165       55.439        0.057      345.291       22.715      861.258
06/23/2014  22:36:00     -278.205       16.690      -36.803      123.466      144.062       62.061    15243.884    20753.916     3851.513        5.943        1.992      278.705       51.564        0.034      345.309       22.744      861.242
06/23/2014  22:37:00     -117.172       85.713      -10.270       73.139      108.275       49.808     5349.375    11723.384     2480.884        2.036        0.978      145.176       41.604        0.082      345.254       22.652      861.263
06/23/2014  22:38:00     -136.595       -0.237       -8.417       75.358       71.614       49.708     5678.807     5128.552     2470.897        1.600        0.664      136.596       27.814        0.041      345.278       22.691      861.282
06/23/2014  22:39:00     -236.828      -63.036       -9.505      170.435       83.323       54.791    29048.046     6942.665     3002.089        4.956        1.950      245.074       73.340        0.090      345.180       22.522      861.315
06/23/2014  22:40:00     -238.036      -18.766      -24.640      105.558       92.222       58.699    11142.498     8504.856     3445.519        4.035        1.155      238.774       51.478        0.046      345.175       22.514      861.316
06/23/2014  22:41:00     -200.101      -30.566      -19.538      140.200       82.179       51.878    19655.920     6753.445     2691.290        3.522        1.455      202.423       53.466        0.070      345.219       22.589      861.311
06/23/2014  22:42:00     -328.648      -73.777      -17.940      123.357      123.904       56.234    15216.845    15352.096     3162.287        7.375        1.687      336.827       52.311        0.024      345.203       22.561      861.322
06/23/2014  22:43:00     -447.590       29.617      -28.597      191.448      163.109       72.874    36652.160    26604.390     5310.604       13.529        3.428      448.569       82.711        0.034      345.267       22.671      861.297
06/23/2014  22:44:00     -300.538        1.180      -36.928      124.794      124.931       56.707    15573.422    15607.683     3215.726        6.304        1.720      300.540       51.365        0.029      345.245       22.634      861.277
06/23/2014  22:45:00     -416.663       51.178      -29.508      164.065      152.131       64.560    26917.283    23143.770     4168.032       11.565        2.711      419.795       68.527        0.027      345.254       22.648      861.244
06/23/2014  22:46:00     -307.702      -39.572      -31.379      223.484      121.136       67.612    49945.322    14673.912     4571.382        8.320        3.460      310.237       87.380        0.079      345.200       22.557      861.251
06/23/2014  22:47:00     -400.620      -78.672       -6.639      154.024      129.036       76.998    23723.388    16650.167     5928.650       10.651        2.315      408.271       74.148        0.033      345.213       22.578      861.268
06/23/2014  22:48:00     -342.841       68.205      -34.035      123.420      119.590       66.533    15232.489    14301.744     4426.600        7.865        1.698      349.559       50.262        0.021      345.247       22.638      861.243
06/23/2014  22:49:00     -387.631      -38.112      -41.360      143.574      125.757       65.228    20613.613    15814.767     4254.733        9.704        2.034      389.500       57.230        0.022      345.218       22.586      861.232
06/23/2014  22:50:00     -275.447     -121.454        0.940      228.384      137.783       91.107    52159.261    18984.273     8300.484        8.502        3.972      301.035      111.689        0.138      345.192       22.543      861.177
06/23/2014  22:51:00     -315.302      -57.039      -32.311      128.345      106.286       58.970    16472.438    11296.625     3477.481        6.747        1.562      320.420       40.029        0.016      345.199       22.555      861.208
06/23/2014  22:52:00      -63.275      -72.873       32.350      160.109      124.113       78.150    25634.817    15404.103     6107.400        2.874        2.357       96.510       89.077        0.852      345.183       22.529      861.131
06/23/2014  22:53:00     -343.898      -19.801        4.276      174.848      165.960       81.867    30571.714    27542.766     6702.271        9.173        3.241      344.467       86.929        0.064      345.188       22.537      861.120
06/23/2014  22:54:00     -452.511       29.735      -19.560      269.751      150.988      101.956    72765.713    22797.474    10395.003       15.597        5.298      453.486      125.777        0.077      345.211       22.576      861.130
06/23/2014  22:55:00     -325.536      -13.697        0.235      170.426      124.917       84.971    29044.994    15604.361     7220.122        7.900        2.593      325.824       92.868        0.081      345.217       22.584      861.144
06/23/2014  22:56:00     -461.895      -14.601      -26.139      161.014      148.852       85.759    25925.553    22156.822     7354.662       13.483        2.772      462.126       83.575        0.033      345.236       22.618      861.142
06/23/2014  22:57:00     -428.793     -135.822      -21.138      194.457      157.355       80.245    37813.543    24760.539     6439.257       13.587        3.451      449.790       66.054        0.022      345.207       22.568      861.110
06/23/2014  22:58:00     -392.870      -84.187        2.277      164.258      113.353       73.582    26980.552    12848.849     5414.306       10.333        2.262      401.789       82.400        0.042      345.172       22.508      861.123
06/23/2014  22:59:00     -342.832     -154.468        2.583      254.221      185.042       89.764    64628.102    34240.703     8057.585       12.414        5.346      376.024      116.106        0.095      345.155       22.480      861.103
06/23/2014  23:00:00     -336.558      -38.943       -5.351      183.513      126.262       85.739    33677.035    15942.111     7351.191        8.588        2.849      338.804      100.873        0.089      345.146       22.464      861.099
06/23/2014  23:01:00     -312.471     -134.137      -10.155      173.297      141.676       70.526    30031.770    20072.204     4973.879        8.539        2.754      340.046       83.931        0.061      345.144       22.461      861.100
06/23/2014  23:02:00     -468.286      -27.102      -22.394      230.818      176.371       96.881    53277.041    31106.659     9385.972       15.713        4.688      469.070      109.597        0.055      345.173       22.509      861.100
06/23/2014  23:03:00     -354.870     -162.027      -29.997      142.450      123.018       79.908    20291.956    15133.416     6385.292        9.744        2.091      390.109       82.266        0.044      345.177       22.516      861.113
06/23/2014  23:04:00     -328.751      -41.709      -12.171      200.914      128.025       66.886    40366.454    16390.437     4473.779        8.559        3.062      331.386       72.746        0.048      345.128       22.434      861.133
06/23/2014  23:05:00     -469.191      -86.259      -15.560      191.994      144.773       91.503    36861.763    20959.156     8372.804       14.700        3.310      477.055      100.625        0.044      345.144       22.462      861.118
06/23/2014  23:06:00     -358.240       -5.135       -9.961      154.298      158.932       70.262    23807.922    25259.538     4936.776        9.122        2.700      358.276       57.457        0.026      345.117       22.415      861.147
06/23/2014  23:07:00     -469.794      -39.596      -45.476      190.169      143.753       90.111    36164.115    20664.944     8120.027       14.463        3.247      471.460      107.294        0.052      345.138       22.450      861.171
06/23/2014  23:08:00     -339.117      -36.513       -8.094      156.432      106.066       66.022    24471.053    11250.068     4358.867        7.823        2.004      341.077       70.669        0.043      345.125       22.429      861.177
06/23/2014  23:09:00     -423.631      -62.722      -22.328      240.637      145.648      102.110    57906.175    21213.376    10426.461       13.670        4.477      428.249      124.256        0.084      345.106       22.396      861.182
06/23/2014  23:10:00     -414.127     -190.279      -28.142      149.100      134.466       77.425    22230.933    18081.226     5994.641       12.739        2.315      455.749       74.867        0.027      345.126       22.430      861.184
06/23/2014  23:11:00     -383.479     -101.297      -36.968      130.364      103.851       62.004    16994.710    10785.124     3844.532        9.515        1.581      396.632       62.855        0.025      345.108       22.401      861.190
06/23/2014  23:12:00     -298.021      -65.270      -16.910      173.263      146.158       62.437    30020.201    21362.086     3898.356        7.431        2.764      305.085       79.786        0.068      345.056       22.312      861.174
06/23/2014  23:13:00     -344.046      -80.890      -28.470      167.151      119.611       73.969    27939.518    14306.822     5471.447        8.671        2.386      353.427       91.966        0.068      345.050       22.302      861.194
06/23/2014  23:14:00     -268.004      -83.070       -1.786      217.456      129.540       88.270    47286.962    16780.707     7791.591        7.528        3.593      280.583      105.869        0.142      345.015       22.241      861.172
06/23/2014  23:15:00     -319.884      -95.193       -7.487      162.358      116.230       63.304    26360.052    13509.477     4007.406        7.765        2.194      333.747       63.733        0.036      345.007       22.228      861.177
06/23/2014  23:16:00     -318.246     -226.164      -27.497      189.858      175.790       94.282    36045.978    30902.171     8889.015       11.450        3.792      390.424       99.076        0.064      345.029       22.264      861.185
06/23/2014  23:17:00     -403.599      -49.527      -15.963      164.031      112.078       54.082    26906.316    12561.508     2924.852       10.399        2.120      406.626       51.323        0.016      344.994       22.204      861.203
06/23/2014  23:18:00     -325.542      -64.012      -19.750      141.447      117.533       60.443    20007.118    13813.896     3653.306        7.396        1.874      331.775       69.107        0.043      344.969       22.163      861.170
06/23/2014  23:19:00     -350.832     -142.901       -5.205      171.725      145.855       70.790    29489.513    21273.729     5011.280        9.964        2.789      378.819       75.197        0.039      344.968       22.158      861.183
06/23/2014  23:20:00     -188.964      -70.010       -8.919      135.971      111.394       59.836    18488.154    12408.610     3580.363        3.758        1.724      201.516       58.087        0.083      344.937       22.107      861.179
06/23/2014  23:21:00     -263.270      -51.165      -13.180       62.962       99.589       44.770     3964.267     9918.004     2004.323        4.399        0.794      268.196       36.181        0.018      344.966       22.155      861.190
06/23/2014  23:22:00     -180.545      -42.860       -7.083      128.524       72.756       47.569    16518.531     5293.487     2262.842        2.927        1.204      185.562       51.545        0.077      344.880       22.011      861.174
06/23/2014  23:23:00     -302.096      -69.655      -17.121      122.145       85.360       55.083    14919.342     7286.315     3034.170        6.082        1.262      310.022       59.650        0.037      344.935       22.103      861.177
06/23/2014  23:24:00     -257.913       18.488      -20.386      100.202       85.527       44.004    10040.492     7314.874     1936.353        4.328        0.965      258.575       32.468        0.016      344.950       22.130      861.186
06/23/2014  23:25:00     -148.356      -44.952       -1.731       80.334       81.979       41.369     6453.631     6720.613     1711.402        1.946        0.744      155.017       35.915        0.054      344.865       21.986      861.193
06/23/2014  23:26:00     -297.416     -107.342      -16.269       95.058       97.048       47.363     9036.018     9418.318     2243.225        6.047        1.035      316.194       48.355        0.023      344.951       22.132      861.201
06/23/2014  23:27:00     -166.992      -27.606      -11.432       65.554       67.409       34.989     4297.306     4543.925     1224.261        1.942        0.503      169.259       38.115        0.051      344.899       22.045      861.190
06/23/2014  23:28:00     -260.286       37.230      -26.829       78.385       81.816       43.293     6144.156     6693.923     1874.321        4.228        0.736      262.936       47.500        0.033      344.880       22.010      861.212
06/23/2014  23:29:00     -140.831        2.728      -17.149       88.303       74.597       44.039     7797.409     5564.760     1939.415        1.772        0.765      140.857       42.133        0.089      344.866       21.988      861.211
06/23/2014  23:30:00     -170.766      -14.328      -20.288       74.503       67.373       46.573     5550.747     4539.157     2169.069        2.102        0.613      171.366       44.626        0.068      344.809       21.889      861.214
06/23/2014  23:31:00     -137.617      -12.346       -7.515      101.527       76.963       43.850    10307.785     5923.282     1922.840        1.865        0.908      138.170       38.694        0.078      344.803       21.879      861.219
06/23/2014  23:32:00     -180.844      -16.751      -16.974      107.119       87.846       40.795    11474.508     7716.869     1664.200        2.706        1.043      181.618       32.520        0.032      344.787       21.851      861.230
06/23/2014  23:33:00     -182.068      -38.266      -13.935       91.005       84.424       67.770     8281.892     7127.408     4592.713        2.740        1.000      186.046       53.120        0.082      344.752       21.791      861.233
06/23/2014  23:34:00     -120.961      -44.157       -7.023       78.302       72.401       43.270     6131.176     5241.889     1872.258        1.494        0.662      128.769       34.041        0.070      344.732       21.757      861.257
06/23/2014  23:35:00     -165.605      -62.415      -21.424      120.066       90.502       50.359    14415.778     8190.663     2536.021        2.846        1.257      176.977       37.747        0.045      344.686       21.678      861.257
06/23/2014  23:36:00     -348.555        0.940      -29.190      125.346      134.426       62.246    15711.723    18070.240     3874.576        7.999        1.883      348.556       59.747        0.029      344.759       21.802      861.271
06/23/2014  23:37:00     -191.585      -31.865       -0.240      143.754      105.556       49.311    20665.094    11142.105     2431.599        3.597        1.712      194.216       44.123        0.052      344.756       21.797      861.248
06/23/2014  23:38:00     -187.835       45.726       -6.696      123.524      138.155       62.290    15258.187    19086.890     3879.997        3.781        1.911      193.321       63.597        0.108      344.693       21.690      861.263
06/23/2014  23:39:00     -389.083      -52.429      -20.519      125.017      105.216       67.846    15629.321    11070.508     4603.075        9.292        1.565      392.599       56.848        0.021      344.751       21.787      861.262
06/23/2014  23:40:00     -113.121        4.425        5.496       97.334       72.361       49.172     9473.983     5236.109     2417.929        1.498        0.856      113.208       34.447        0.093      344.702       21.706      861.259
06/23/2014  23:41:00     -312.183      -99.203      -15.786      129.879       97.684       51.237    16868.654     9542.094     2625.207        6.829        1.452      327.566       52.182        0.025      344.722       21.738      861.277
06/23/2014  23:42:00     -338.082      -26.864      -16.100      156.277      108.260       65.578    24422.450    11720.132     4300.415        7.785        2.022      339.148       73.759        0.047      344.709       21.715      861.271
06/23/2014  23:43:00     -284.850      -50.683      -10.346      140.649       99.607       67.540    19782.133     9921.503     4561.623        5.903        1.713      289.324       68.156        0.055      344.694       21.691      861.274
06/23/2014  23:44:00     -226.992     -137.846      -10.055      157.090      134.930       70.941    24677.143    18206.128     5032.676        5.926        2.396      265.569       78.717        0.088      344.722       21.737      861.266
06/23/2014  23:45:00     -301.312     -111.273       -4.303      195.691      171.862       92.213    38295.115    29536.703     8503.249        8.975        3.817      321.202      100.857        0.099      344.685       21.676      861.253
06/23/2014  23:46:00     -396.022      -37.279      -10.972      161.106      139.007       65.851    25955.225    19322.982     4336.319       10.397        2.481      397.773       72.881        0.034      344.682       21.668      861.267
06/23/2014  23:47:00     -212.700      -13.803      -10.949      158.191      112.045       66.034    25024.254    12554.057     4360.491        4.374        2.097      213.147       85.297        0.160      344.655       21.626      861.280
06/23/2014  23:48:00     -163.537      -21.790        0.802      117.263       85.851       55.082    13750.654     7370.478     3034.011        2.568        1.208      164.982       57.499        0.121      344.611       21.551      861.296
06/23/2014  23:49:00     -151.377       20.720      -10.981       74.496      105.378       42.778     5549.705    11104.478     1829.931        2.097        0.924      152.788       27.562        0.033      344.614       21.557      861.322
06/23/2014  23:50:00     -212.013      -41.116        0.854      171.365      119.311       61.750    29366.128    14235.193     3813.104        4.702        2.371      215.963       70.277        0.106      344.645       21.608      861.329
06/23/2014  23:51:00     -336.526       16.813        1.502      152.150      129.699       65.923    23149.472    16821.911     4345.868        7.892        2.216      336.946       74.407        0.049      344.625       21.574      861.313
06/23/2014  23:52:00     -271.497      -34.571       -9.879      155.269      113.923       67.699    24108.445    12978.426     4583.192        5.833        2.084      273.689       84.772        0.096      344.645       21.607      861.327
06/23/2014  23:53:00     -390.025      -92.513      -18.636      154.278      172.939       65.704    23801.821    29908.000     4316.961       10.951        2.901      400.847       69.958        0.030      344.638       21.596      861.316
06/23/2014  23:54:00     -368.028      -88.828      -16.626      170.234      106.753       66.924    28979.672    11396.296     4478.833        9.422        2.243      378.596       80.210        0.045      344.646       21.609      861.329
06/23/2014  23:55:00     -254.210      -18.714       -8.099      143.045      104.207       49.725    20461.774    10859.177     2472.569        4.941        1.690      254.898       40.661        0.025      344.618       21.561      861.334
06/23/2014  23:56:00     -254.805      -61.017      -13.891      120.746      103.544       53.296    14579.585    10721.279     2840.427        4.849        1.407      262.009       56.152        0.046      344.620       21.564      861.319
06/23/2014  23:57:00     -282.974      -75.544      -15.388      114.734      129.035       57.591    13163.833    16650.089     3316.758        5.957        1.657      292.885       53.352        0.033      344.601       21.531      861.315
06/23/2014  23:58:00     -309.319      -81.372       -6.882      127.633      122.078       72.176    16290.284    14902.938     5209.433        6.937        1.820      319.843       72.161        0.051      344.630       21.582      861.305
06/23/2014  23:59:00     -403.987     -107.368       -0.214      129.088       94.996       67.038    16663.630     9024.308     4494.046       10.245        1.509      418.011       69.520        0.028      344.626       21.574      861.321
